Flight Number: AVA1114 Duration: 1:45
Departure: Copenhagen Kastrup (EKCH) at 07:15 Distance: 537.64 Nm
Arrival: Manchester Airport (EGCC) at 09:00 Equipment: B737

Weather Information
Koebenhavn / Kastrup, Denmark (EKCH) 55-37N 012-39E 5M Sep 27, 2020 - 11:20 AM EDT / 2020.09.27 1520 UTC
Wind: from the E (090 degrees) at 13 MPH (11 KT):0
Visibility: greater than 7 mile(s):0
Sky conditions: mostly clear Temperature: 66 F (19 C) Dew Point: 57 F (14 C) Relative Humidity: 72% Pressure (altimeter): 29.68 in. Hg (1005 hPa)
ob: EKCH 271520Z AUTO 09011KT 9999 FEW200/// 19/14 Q1005 NOSIG cycle: 15
Sunrise: 05:10 Sunset: 16:49 (UTC)

Manchester Airport, United Kingdom (EGCC) 53-21N 002-17W 0M Sep 27, 2020 - 11:20 AM EDT / 2020.09.27 1520 UTC
Wind: from the NW (310 degrees) at 8 MPH (7 KT):0
Visibility: greater than 7 mile(s):0 Temperature: 57 F (14 C) Dew Point: 39 F (4 C) Relative Humidity: 50% Pressure (altimeter): 29.97 in. Hg (1015 hPa)
ob: EGCC 271520Z AUTO 31007KT 9999 NCD 14/04 Q1015 cycle: 15
Sunrise: 06:09 Sunset: 17:50 (UTC)

TAF:2020/09/27 12:09 TAF EGCC 271054Z 2712/2818 34009KT 9999 FEW045 PROB30 2802/2809 4000 BR PROB30 TEMPO 2813/2818 8000 -RA BKN012

Previous Pireps for this route
Date Aircraft Flight time Fuel used Landing rate On time
2016-02-28B73701.4910333-120Yes
2017-04-13B73701.579824-233Yes
(pireps marked green are flown by you)

Route map